NCAR-RAP Real-Time Weather Data

Output produced by METARs form (06 May 2021  15:50 UTC)
found at http://weather.rap.ucar.edu/surface/
 
KLNK 061454Z 36011KT 10SM CLR 10/04 A3037 RMK AO2 SLP284 T01000039 51018
KLNK 061354Z 35013KT 10SM FEW017 08/03 A3036 RMK AO2 SLP285 T00780028
KLNK 061318Z 36010KT 10SM SCT012 06/02 A3035 RMK AO2 T00610022
KLNK 061254Z 01008KT 10SM BKN012 06/02 A3034 RMK AO2 SLP277 T00560022
KLNK 061216Z 36014KT 10SM BKN011 05/02 A3032 RMK AO2 T00500022
KLNK 061154Z 36012KT 10SM FEW011 04/02 A3031 RMK AO2 SLP267 70006 T00440017 10094 20039 51023
KLNK 061054Z 35012KT 10SM CLR 04/02 A3029 RMK AO2 SLP259 T00440022
KLNK 060954Z 34012KT 10SM FEW010 06/03 A3027 RMK AO2 SLP250 T00560028
KLNK 060854Z 34013KT 10SM CLR 06/03 A3024 RMK AO2 SLP241 T00560033 51022
KLNK 060754Z 35014G22KT 10SM CLR 07/04 A3022 RMK AO2 SLP234 T00670039
KLNK 060654Z 35013G20KT 10SM CLR 08/05 A3020 RMK AO2 SLP226 T00780050
KLNK 060554Z 33010KT 10SM CLR 09/07 A3017 RMK AO2 SLP216 T00940072 10156 20067 401890000 53019
KLNK 060454Z 00000KT 10SM CLR 10/08 A3014 RMK AO2 SLP203 T01000078
KLNK 060354Z 26003KT 10SM CLR 10/08 A3013 RMK AO2 SLP203 T01000078
KLNK 060254Z 06003KT 10SM CLR 11/08 A3012 RMK AO2 SLP198 T01060078 53019
KLNK 060154Z 02004KT 10SM CLR 09/07 A3008 RMK AO2 SLP188 T00940072
KLNK 060054Z 11004KT 10SM FEW100 14/09 A3005 RMK AO2 SLP178 T01440094